sensor_id;sensor_type;location;lat;lon;timestamp;pressure;altitude;pressure_sealevel;temperature;humidity
62849;BME280;48941;49.516;8.286;2023-04-26T00:01:27;100572.00;;;6.73;67.50
62849;BME280;48941;49.516;8.286;2023-04-26T00:03:55;100572.25;;;6.69;68.07
62849;BME280;48941;49.516;8.286;2023-04-26T00:06:23;100571.50;;;6.67;68.36
62849;BME280;48941;49.516;8.286;2023-04-26T00:08:52;100567.44;;;6.61;68.25
62849;BME280;48941;49.516;8.286;2023-04-26T00:11:21;100566.94;;;6.54;67.89
62849;BME280;48941;49.516;8.286;2023-04-26T00:13:50;100569.03;;;6.49;67.70
62849;BME280;48941;49.516;8.286;2023-04-26T00:16:17;100567.53;;;6.45;68.48
62849;BME280;48941;49.516;8.286;2023-04-26T00:18:46;100566.16;;;6.38;68.25
62849;BME280;48941;49.516;8.286;2023-04-26T00:21:14;100573.53;;;6.33;68.23
62849;BME280;48941;49.516;8.286;2023-04-26T00:23:42;100572.97;;;6.28;68.35
62849;BME280;48941;49.516;8.286;2023-04-26T00:26:09;100573.41;;;6.20;67.89
62849;BME280;48941;49.516;8.286;2023-04-26T00:28:37;100569.31;;;6.14;68.18
62849;BME280;48941;49.516;8.286;2023-04-26T00:31:06;100575.06;;;6.07;68.27
62849;BME280;48941;49.516;8.286;2023-04-26T00:33:41;100575.06;;;6.07;68.66
62849;BME280;48941;49.516;8.286;2023-04-26T00:36:17;100571.00;;;6.01;68.26
62849;BME280;48941;49.516;8.286;2023-04-26T00:38:45;100568.44;;;6.00;68.04
62849;BME280;48941;49.516;8.286;2023-04-26T00:41:13;100568.53;;;5.98;68.30
62849;BME280;48941;49.516;8.286;2023-04-26T00:43:41;100566.03;;;5.95;68.61
62849;BME280;48941;49.516;8.286;2023-04-26T00:46:10;100570.47;;;5.94;68.35
62849;BME280;48941;49.516;8.286;2023-04-26T00:48:38;100571.50;;;5.92;68.74
62849;BME280;48941;49.516;8.286;2023-04-26T00:51:06;100573.66;;;5.85;69.03
62849;BME280;48941;49.516;8.286;2023-04-26T00:53:34;100565.88;;;5.82;69.16
62849;BME280;48941;49.516;8.286;2023-04-26T00:56:05;100575.78;;;5.78;69.36
62849;BME280;48941;49.516;8.286;2023-04-26T00:58:33;100576.81;;;5.76;69.67
62849;BME280;48941;49.516;8.286;2023-04-26T01:01:01;100575.19;;;5.73;69.72
62849;BME280;48941;49.516;8.286;2023-04-26T01:03:30;100569.31;;;5.68;69.90
62849;BME280;48941;49.516;8.286;2023-04-26T01:05:58;100566.88;;;5.65;70.26
62849;BME280;48941;49.516;8.286;2023-04-26T01:08:26;100573.22;;;5.61;70.26
62849;BME280;48941;49.516;8.286;2023-04-26T01:10:54;100575.97;;;5.59;70.10
62849;BME280;48941;49.516;8.286;2023-04-26T01:13:23;100577.19;;;5.54;70.14
62849;BME280;48941;49.516;8.286;2023-04-26T01:15:52;100575.38;;;5.54;70.29
62849;BME280;48941;49.516;8.286;2023-04-26T01:18:21;100568.41;;;5.53;69.94
62849;BME280;48941;49.516;8.286;2023-04-26T01:20:50;100571.06;;;5.53;69.84
62849;BME280;48941;49.516;8.286;2023-04-26T01:23:20;100569.59;;;5.48;69.69
62849;BME280;48941;49.516;8.286;2023-04-26T01:25:47;100563.34;;;5.49;69.84
62849;BME280;48941;49.516;8.286;2023-04-26T01:28:15;100564.31;;;5.48;69.63
62849;BME280;48941;49.516;8.286;2023-04-26T01:30:48;100561.91;;;5.43;69.76
62849;BME280;48941;49.516;8.286;2023-04-26T01:33:16;100563.78;;;5.41;69.96
62849;BME280;48941;49.516;8.286;2023-04-26T01:35:43;100565.66;;;5.39;69.83
62849;BME280;48941;49.516;8.286;2023-04-26T01:38:11;100556.06;;;5.38;70.05
62849;BME280;48941;49.516;8.286;2023-04-26T01:40:41;100555.09;;;5.39;69.83
62849;BME280;48941;49.516;8.286;2023-04-26T01:43:11;100565.78;;;5.37;70.06
62849;BME280;48941;49.516;8.286;2023-04-26T01:45:40;100563.22;;;5.36;70.29
62849;BME280;48941;49.516;8.286;2023-04-26T01:48:08;100564.25;;;5.33;70.68
62849;BME280;48941;49.516;8.286;2023-04-26T01:50:36;100560.91;;;5.30;70.80
62849;BME280;48941;49.516;8.286;2023-04-26T01:53:03;100566.78;;;5.35;70.37
62849;BME280;48941;49.516;8.286;2023-04-26T01:55:32;100570.94;;;5.39;70.54
62849;BME280;48941;49.516;8.286;2023-04-26T01:58:01;100566.69;;;5.36;70.35
62849;BME280;48941;49.516;8.286;2023-04-26T02:00:29;100567.66;;;5.35;70.76
62849;BME280;48941;49.516;8.286;2023-04-26T02:02:57;100566.00;;;5.33;70.26
62849;BME280;48941;49.516;8.286;2023-04-26T02:05:25;100578.44;;;5.31;70.52
62849;BME280;48941;49.516;8.286;2023-04-26T02:07:53;100568.66;;;5.33;70.42
62849;BME280;48941;49.516;8.286;2023-04-26T02:10:20;100570.28;;;5.35;70.29
62849;BME280;48941;49.516;8.286;2023-04-26T02:12:48;100569.59;;;5.32;70.45
62849;BME280;48941;49.516;8.286;2023-04-26T02:15:17;100569.59;;;5.32;70.67
62849;BME280;48941;49.516;8.286;2023-04-26T02:17:45;100576.06;;;5.26;71.02
62849;BME280;48941;49.516;8.286;2023-04-26T02:20:13;100570.50;;;5.15;71.36
62849;BME280;48941;49.516;8.286;2023-04-26T02:22:40;100564.47;;;5.13;71.39
62849;BME280;48941;49.516;8.286;2023-04-26T02:25:08;100571.94;;;5.05;71.67
62849;BME280;48941;49.516;8.286;2023-04-26T02:27:37;100573.25;;;4.97;71.76
62849;BME280;48941;49.516;8.286;2023-04-26T02:30:05;100569.97;;;4.92;72.11
62849;BME280;48941;49.516;8.286;2023-04-26T02:32:35;100571.06;;;4.88;72.24
62849;BME280;48941;49.516;8.286;2023-04-26T02:35:03;100571.47;;;4.81;72.27
62849;BME280;48941;49.516;8.286;2023-04-26T02:37:32;100572.66;;;4.75;72.49
62849;BME280;48941;49.516;8.286;2023-04-26T02:40:00;100577.34;;;4.70;72.73
62849;BME280;48941;49.516;8.286;2023-04-26T02:42:27;100575.81;;;4.66;72.73
62849;BME280;48941;49.516;8.286;2023-04-26T02:44:55;100578.59;;;4.63;73.28
62849;BME280;48941;49.516;8.286;2023-04-26T02:47:23;100573.88;;;4.69;73.05
62849;BME280;48941;49.516;8.286;2023-04-26T02:49:55;100573.75;;;4.71;73.07
62849;BME280;48941;49.516;8.286;2023-04-26T02:52:33;100576.31;;;4.72;72.99
62849;BME280;48941;49.516;8.286;2023-04-26T02:55:01;100583.88;;;4.63;73.10
62849;BME280;48941;49.516;8.286;2023-04-26T02:57:29;100584.97;;;4.58;73.53
62849;BME280;48941;49.516;8.286;2023-04-26T02:59:58;100578.13;;;4.54;73.87
62849;BME280;48941;49.516;8.286;2023-04-26T03:02:26;100586.06;;;4.54;74.06
62849;BME280;48941;49.516;8.286;2023-04-26T03:04:56;100584.44;;;4.52;74.07
62849;BME280;48941;49.516;8.286;2023-04-26T03:07:23;100580.00;;;4.52;74.30
62849;BME280;48941;49.516;8.286;2023-04-26T03:09:51;100578.31;;;4.51;74.38
62849;BME280;48941;49.516;8.286;2023-04-26T03:12:18;100575.69;;;4.51;74.84
62849;BME280;48941;49.516;8.286;2023-04-26T03:14:46;100572.22;;;4.49;74.84
62849;BME280;48941;49.516;8.286;2023-04-26T03:17:14;100574.19;;;4.46;75.04
62849;BME280;48941;49.516;8.286;2023-04-26T03:19:41;100569.91;;;4.43;74.95
62849;BME280;48941;49.516;8.286;2023-04-26T03:22:10;100570.09;;;4.40;75.34
62849;BME280;48941;49.516;8.286;2023-04-26T03:24:41;100572.81;;;4.38;75.39
62849;BME280;48941;49.516;8.286;2023-04-26T03:27:09;100569.47;;;4.35;75.37
62849;BME280;48941;49.516;8.286;2023-04-26T03:29:37;100572.41;;;4.29;75.78
62849;BME280;48941;49.516;8.286;2023-04-26T03:32:04;100565.22;;;4.32;75.96
62849;BME280;48941;49.516;8.286;2023-04-26T03:34:32;100570.72;;;4.28;75.89
62849;BME280;48941;49.516;8.286;2023-04-26T03:37:00;100570.94;;;4.23;75.92
62849;BME280;48941;49.516;8.286;2023-04-26T03:39:30;100575.59;;;4.18;75.91
62849;BME280;48941;49.516;8.286;2023-04-26T03:41:57;100580.19;;;4.14;75.95
62849;BME280;48941;49.516;8.286;2023-04-26T03:44:25;100577.69;;;4.11;76.04
62849;BME280;48941;49.516;8.286;2023-04-26T03:46:56;100574.38;;;4.08;76.08
62849;BME280;48941;49.516;8.286;2023-04-26T03:49:23;100576.44;;;4.01;76.46
62849;BME280;48941;49.516;8.286;2023-04-26T03:51:51;100572.34;;;3.95;76.74
62849;BME280;48941;49.516;8.286;2023-04-26T03:54:19;100572.56;;;3.91;76.95
62849;BME280;48941;49.516;8.286;2023-04-26T03:56:48;100568.38;;;3.87;77.10
62849;BME280;48941;49.516;8.286;2023-04-26T03:59:16;100567.34;;;3.89;76.99
62849;BME280;48941;49.516;8.286;2023-04-26T04:01:44;100569.00;;;3.92;76.75
62849;BME280;48941;49.516;8.286;2023-04-26T04:04:11;100563.75;;;3.92;76.69
62849;BME280;48941;49.516;8.286;2023-04-26T04:06:40;100567.16;;;3.94;76.40
62849;BME280;48941;49.516;8.286;2023-04-26T04:09:07;100560.81;;;3.98;76.14
62849;BME280;48941;49.516;8.286;2023-04-26T04:11:35;100563.44;;;3.98;76.10
62849;BME280;48941;49.516;8.286;2023-04-26T04:14:04;100566.84;;;4.00;76.49
62849;BME280;48941;49.516;8.286;2023-04-26T04:16:32;100578.16;;;4.02;76.61
62849;BME280;48941;49.516;8.286;2023-04-26T04:19:00;100572.03;;;4.02;76.38
62849;BME280;48941;49.516;8.286;2023-04-26T04:21:28;100579.00;;;4.03;76.33
62849;BME280;48941;49.516;8.286;2023-04-26T04:23:55;100580.09;;;3.98;76.28
62849;BME280;48941;49.516;8.286;2023-04-26T04:26:23;100581.94;;;3.96;76.32
62849;BME280;48941;49.516;8.286;2023-04-26T04:28:51;100578.31;;;3.99;76.26
62849;BME280;48941;49.516;8.286;2023-04-26T04:31:21;100581.81;;;3.99;76.38
62849;BME280;48941;49.516;8.286;2023-04-26T04:33:50;100589.72;;;3.99;77.10
62849;BME280;48941;49.516;8.286;2023-04-26T04:36:17;100590.00;;;3.93;77.54
62849;BME280;48941;49.516;8.286;2023-04-26T04:38:45;100590.00;;;3.93;77.77
62849;BME280;48941;49.516;8.286;2023-04-26T04:41:13;100600.47;;;3.95;77.92
62849;BME280;48941;49.516;8.286;2023-04-26T04:43:40;100606.44;;;3.98;77.91
62849;BME280;48941;49.516;8.286;2023-04-26T04:46:08;100612.44;;;4.02;77.79
62849;BME280;48941;49.516;8.286;2023-04-26T04:48:39;100611.41;;;4.05;77.24
62849;BME280;48941;49.516;8.286;2023-04-26T04:51:07;100614.13;;;4.03;77.27
62849;BME280;48941;49.516;8.286;2023-04-26T04:53:34;100613.28;;;4.03;77.68
62849;BME280;48941;49.516;8.286;2023-04-26T04:56:02;100623.50;;;4.09;77.46
62849;BME280;48941;49.516;8.286;2023-04-26T04:58:30;100620.94;;;4.07;77.84
62849;BME280;48941;49.516;8.286;2023-04-26T05:00:58;100619.31;;;4.05;78.05
62849;BME280;48941;49.516;8.286;2023-04-26T05:03:27;100614.81;;;4.07;77.96
62849;BME280;48941;49.516;8.286;2023-04-26T05:05:56;100609.94;;;3.99;78.50
62849;BME280;48941;49.516;8.286;2023-04-26T05:08:24;100618.53;;;4.03;78.24
62849;BME280;48941;49.516;8.286;2023-04-26T05:10:51;100625.44;;;4.05;78.24
62849;BME280;48941;49.516;8.286;2023-04-26T05:13:19;100628.78;;;4.09;78.45
62849;BME280;48941;49.516;8.286;2023-04-26T05:15:47;100627.09;;;4.08;78.78
62849;BME280;48941;49.516;8.286;2023-04-26T05:18:17;100628.84;;;4.07;78.97
62849;BME280;48941;49.516;8.286;2023-04-26T05:20:45;100626.16;;;4.09;79.25
62849;BME280;48941;49.516;8.286;2023-04-26T05:23:14;100626.84;;;4.12;79.28
62849;BME280;48941;49.516;8.286;2023-04-26T05:25:42;100629.19;;;4.18;79.23
62849;BME280;48941;49.516;8.286;2023-04-26T05:28:09;100633.44;;;4.21;79.18
62849;BME280;48941;49.516;8.286;2023-04-26T05:30:39;100633.38;;;4.23;79.53
62849;BME280;48941;49.516;8.286;2023-04-26T05:33:06;100635.69;;;4.29;79.78
62849;BME280;48941;49.516;8.286;2023-04-26T05:35:34;100631.06;;;4.34;79.93
62849;BME280;48941;49.516;8.286;2023-04-26T05:38:02;100638.72;;;4.38;80.21
62849;BME280;48941;49.516;8.286;2023-04-26T05:40:32;100634.00;;;4.45;80.43
62849;BME280;48941;49.516;8.286;2023-04-26T05:42:59;100631.84;;;4.53;80.66
62849;BME280;48941;49.516;8.286;2023-04-26T05:45:27;100640.13;;;4.63;80.49
62849;BME280;48941;49.516;8.286;2023-04-26T05:47:55;100638.03;;;4.70;80.18
62849;BME280;48941;49.516;8.286;2023-04-26T05:50:23;100649.13;;;4.76;79.87
62849;BME280;48941;49.516;8.286;2023-04-26T05:52:50;100647.00;;;4.83;80.16
62849;BME280;48941;49.516;8.286;2023-04-26T05:55:19;100638.69;;;4.91;79.92
62849;BME280;48941;49.516;8.286;2023-04-26T05:57:48;100648.69;;;5.02;79.88
62849;BME280;48941;49.516;8.286;2023-04-26T06:00:27;100655.19;;;5.12;79.79
62849;BME280;48941;49.516;8.286;2023-04-26T06:02:55;100655.44;;;5.23;78.65
62849;BME280;48941;49.516;8.286;2023-04-26T06:05:23;100658.38;;;5.34;77.18
62849;BME280;48941;49.516;8.286;2023-04-26T06:07:52;100657.81;;;5.45;75.94
62849;BME280;48941;49.516;8.286;2023-04-26T06:10:20;100658.91;;;5.57;75.66
62849;BME280;48941;49.516;8.286;2023-04-26T06:12:49;100661.81;;;5.68;75.05
62849;BME280;48941;49.516;8.286;2023-04-26T06:15:17;100664.88;;;5.76;74.79
62849;BME280;48941;49.516;8.286;2023-04-26T06:17:45;100662.66;;;5.85;74.02
62849;BME280;48941;49.516;8.286;2023-04-26T06:20:13;100663.19;;;5.91;73.84
62849;BME280;48941;49.516;8.286;2023-04-26T06:22:44;100668.03;;;5.99;73.88
62849;BME280;48941;49.516;8.286;2023-04-26T06:25:12;100663.09;;;6.09;74.22
62849;BME280;48941;49.516;8.286;2023-04-26T06:27:39;100669.06;;;6.12;73.83
62849;BME280;48941;49.516;8.286;2023-04-26T06:30:09;100664.28;;;6.19;73.41
62849;BME280;48941;49.516;8.286;2023-04-26T06:32:37;100661.38;;;6.24;73.36
62849;BME280;48941;49.516;8.286;2023-04-26T06:35:06;100655.66;;;6.31;73.34
62849;BME280;48941;49.516;8.286;2023-04-26T06:37:33;100656.97;;;6.38;73.11
62849;BME280;48941;49.516;8.286;2023-04-26T06:40:01;100658.41;;;6.44;72.32
62849;BME280;48941;49.516;8.286;2023-04-26T06:42:29;100657.13;;;6.51;71.72
62849;BME280;48941;49.516;8.286;2023-04-26T06:44:57;100657.31;;;6.63;71.22
62849;BME280;48941;49.516;8.286;2023-04-26T06:47:26;100651.66;;;6.69;70.68
62849;BME280;48941;49.516;8.286;2023-04-26T06:49:54;100644.78;;;6.81;69.82
62849;BME280;48941;49.516;8.286;2023-04-26T06:52:22;100654.81;;;6.90;68.65
62849;BME280;48941;49.516;8.286;2023-04-26T06:54:49;100654.28;;;6.99;67.58
62849;BME280;48941;49.516;8.286;2023-04-26T06:57:22;100655.22;;;7.12;66.42
62849;BME280;48941;49.516;8.286;2023-04-26T06:59:50;100660.78;;;7.22;66.29
62849;BME280;48941;49.516;8.286;2023-04-26T07:02:18;100653.97;;;7.32;65.64
62849;BME280;48941;49.516;8.286;2023-04-26T07:04:47;100662.03;;;7.45;64.52
62849;BME280;48941;49.516;8.286;2023-04-26T07:07:15;100657.75;;;7.57;64.14
62849;BME280;48941;49.516;8.286;2023-04-26T07:09:43;100648.34;;;7.66;63.99
62849;BME280;48941;49.516;8.286;2023-04-26T07:12:10;100651.44;;;7.72;63.70
62849;BME280;48941;49.516;8.286;2023-04-26T07:14:39;100658.00;;;7.81;62.83
62849;BME280;48941;49.516;8.286;2023-04-26T07:17:08;100655.03;;;7.86;62.12
62849;BME280;48941;49.516;8.286;2023-04-26T07:19:36;100656.22;;;7.94;62.75
62849;BME280;48941;49.516;8.286;2023-04-26T07:22:05;100659.22;;;8.03;61.58
62849;BME280;48941;49.516;8.286;2023-04-26T07:24:33;100659.97;;;8.05;60.37
62849;BME280;48941;49.516;8.286;2023-04-26T07:27:01;100665.00;;;8.09;61.09
62849;BME280;48941;49.516;8.286;2023-04-26T07:29:29;100654.50;;;8.21;61.80
62849;BME280;48941;49.516;8.286;2023-04-26T07:31:57;100661.56;;;8.34;61.45
62849;BME280;48941;49.516;8.286;2023-04-26T07:34:25;100650.28;;;8.45;60.87
62849;BME280;48941;49.516;8.286;2023-04-26T07:36:52;100654.84;;;8.56;60.74
62849;BME280;48941;49.516;8.286;2023-04-26T07:39:22;100653.41;;;8.65;60.76
62849;BME280;48941;49.516;8.286;2023-04-26T07:41:50;100655.72;;;8.82;60.38
62849;BME280;48941;49.516;8.286;2023-04-26T07:44:18;100661.69;;;8.98;59.94
62849;BME280;48941;49.516;8.286;2023-04-26T07:46:46;100657.47;;;9.09;58.87
62849;BME280;48941;49.516;8.286;2023-04-26T07:49:13;100657.53;;;9.20;57.88
62849;BME280;48941;49.516;8.286;2023-04-26T07:51:43;100661.78;;;9.35;56.99
62849;BME280;48941;49.516;8.286;2023-04-26T07:54:11;100657.06;;;9.52;57.19
62849;BME280;48941;49.516;8.286;2023-04-26T07:57:03;100662.88;;;9.70;55.01
62849;BME280;48941;49.516;8.286;2023-04-26T07:59:31;100651.97;;;9.86;55.75
62849;BME280;48941;49.516;8.286;2023-04-26T08:01:59;100654.75;;;10.08;55.10
62849;BME280;48941;49.516;8.286;2023-04-26T08:04:31;100656.69;;;10.30;54.62
62849;BME280;48941;49.516;8.286;2023-04-26T08:07:00;100660.97;;;10.44;53.03
62849;BME280;48941;49.516;8.286;2023-04-26T08:09:28;100668.19;;;10.55;53.17
62849;BME280;48941;49.516;8.286;2023-04-26T08:11:57;100664.81;;;10.64;53.33
62849;BME280;48941;49.516;8.286;2023-04-26T08:14:26;100672.56;;;10.67;52.78
62849;BME280;48941;49.516;8.286;2023-04-26T08:16:55;100660.50;;;10.74;52.97
62849;BME280;48941;49.516;8.286;2023-04-26T08:19:23;100663.06;;;10.87;52.79
62849;BME280;48941;49.516;8.286;2023-04-26T08:21:52;100663.66;;;10.91;51.74
62849;BME280;48941;49.516;8.286;2023-04-26T08:24:19;100665.59;;;11.00;52.31
62849;BME280;48941;49.516;8.286;2023-04-26T08:26:47;100665.00;;;11.08;51.81
62849;BME280;48941;49.516;8.286;2023-04-26T08:29:15;100656.06;;;11.09;51.74
62849;BME280;48941;49.516;8.286;2023-04-26T08:31:45;100664.06;;;11.09;51.88
62849;BME280;48941;49.516;8.286;2023-04-26T08:34:14;100665.16;;;11.18;51.54
62849;BME280;48941;49.516;8.286;2023-04-26T08:36:42;100658.97;;;11.40;51.26
62849;BME280;48941;49.516;8.286;2023-04-26T08:39:11;100647.69;;;11.59;50.46
62849;BME280;48941;49.516;8.286;2023-04-26T08:41:42;100651.66;;;11.75;50.09
62849;BME280;48941;49.516;8.286;2023-04-26T08:44:10;100643.75;;;11.85;49.33
62849;BME280;48941;49.516;8.286;2023-04-26T08:46:46;100646.16;;;12.11;49.31
62849;BME280;48941;49.516;8.286;2023-04-26T08:49:29;100643.16;;;12.25;48.79
62849;BME280;48941;49.516;8.286;2023-04-26T08:51:59;100638.94;;;12.44;48.32
62849;BME280;48941;49.516;8.286;2023-04-26T08:54:27;100635.25;;;12.56;47.82
62849;BME280;48941;49.516;8.286;2023-04-26T08:56:58;100638.44;;;12.71;48.00
62849;BME280;48941;49.516;8.286;2023-04-26T08:59:26;100641.31;;;12.79;47.58
62849;BME280;48941;49.516;8.286;2023-04-26T09:01:57;100629.38;;;12.83;46.19
62849;BME280;48941;49.516;8.286;2023-04-26T09:04:25;100632.88;;;12.84;45.50
62849;BME280;48941;49.516;8.286;2023-04-26T09:06:58;100630.56;;;12.90;45.43
62849;BME280;48941;49.516;8.286;2023-04-26T09:09:26;100632.53;;;12.88;45.43
62849;BME280;48941;49.516;8.286;2023-04-26T09:11:56;100628.50;;;13.04;44.57
62849;BME280;48941;49.516;8.286;2023-04-26T09:14:25;100635.16;;;13.09;43.55
62849;BME280;48941;49.516;8.286;2023-04-26T09:16:54;100632.59;;;13.08;42.77
62849;BME280;48941;49.516;8.286;2023-04-26T09:19:35;100631.94;;;13.15;43.04
62849;BME280;48941;49.516;8.286;2023-04-26T09:22:03;100625.88;;;13.13;42.63
62849;BME280;48941;49.516;8.286;2023-04-26T09:24:48;100633.06;;;13.13;42.20
62849;BME280;48941;49.516;8.286;2023-04-26T09:27:17;100636.31;;;13.17;41.29
62849;BME280;48941;49.516;8.286;2023-04-26T09:29:57;100635.47;;;13.16;41.44
62849;BME280;48941;49.516;8.286;2023-04-26T09:32:25;100637.47;;;13.24;41.21
62849;BME280;48941;49.516;8.286;2023-04-26T09:34:56;100632.94;;;13.45;40.62
62849;BME280;48941;49.516;8.286;2023-04-26T09:37:23;100639.41;;;13.43;40.30
62849;BME280;48941;49.516;8.286;2023-04-26T09:39:51;100632.81;;;13.47;40.50
62849;BME280;48941;49.516;8.286;2023-04-26T09:42:19;100636.44;;;13.46;40.52
62849;BME280;48941;49.516;8.286;2023-04-26T09:44:46;100632.38;;;13.51;40.86
62849;BME280;48941;49.516;8.286;2023-04-26T09:47:14;100627.16;;;13.50;41.14
62849;BME280;48941;49.516;8.286;2023-04-26T09:49:44;100622.25;;;13.55;41.29
62849;BME280;48941;49.516;8.286;2023-04-26T09:52:13;100616.19;;;13.53;40.96
62849;BME280;48941;49.516;8.286;2023-04-26T09:54:44;100617.38;;;13.60;40.93
62849;BME280;48941;49.516;8.286;2023-04-26T09:57:13;100619.03;;;13.61;40.96
62849;BME280;48941;49.516;8.286;2023-04-26T09:59:43;100619.69;;;13.44;40.93
62849;BME280;48941;49.516;8.286;2023-04-26T10:02:19;100617.56;;;13.38;40.64
62849;BME280;48941;49.516;8.286;2023-04-26T10:04:49;100619.69;;;13.44;40.41
62849;BME280;48941;49.516;8.286;2023-04-26T10:07:21;100615.03;;;13.36;40.22
62849;BME280;48941;49.516;8.286;2023-04-26T10:09:49;100612.81;;;13.51;40.14
62849;BME280;48941;49.516;8.286;2023-04-26T10:12:18;100611.00;;;13.61;39.70
62849;BME280;48941;49.516;8.286;2023-04-26T10:14:47;100609.03;;;13.63;39.73
62849;BME280;48941;49.516;8.286;2023-04-26T10:17:15;100610.44;;;13.58;39.41
62849;BME280;48941;49.516;8.286;2023-04-26T10:19:47;100606.22;;;13.55;39.85
62849;BME280;48941;49.516;8.286;2023-04-26T10:22:21;100612.72;;;13.62;39.87
62849;BME280;48941;49.516;8.286;2023-04-26T10:24:52;100613.44;;;13.64;39.83
62849;BME280;48941;49.516;8.286;2023-04-26T10:27:50;100616.78;;;13.57;40.01
62849;BME280;48941;49.516;8.286;2023-04-26T10:30:20;100615.66;;;13.59;39.59
62849;BME280;48941;49.516;8.286;2023-04-26T10:33:10;100611.72;;;13.63;40.26
62849;BME280;48941;49.516;8.286;2023-04-26T10:36:02;100605.53;;;13.63;40.65
62849;BME280;48941;49.516;8.286;2023-04-26T10:38:32;100603.56;;;13.65;40.14
62849;BME280;48941;49.516;8.286;2023-04-26T10:41:35;100601.31;;;13.60;40.42
62849;BME280;48941;49.516;8.286;2023-04-26T10:44:38;100598.50;;;13.81;39.75
62849;BME280;48941;49.516;8.286;2023-04-26T10:47:19;100585.28;;;13.99;39.18
62849;BME280;48941;49.516;8.286;2023-04-26T10:49:48;100583.00;;;14.33;39.70
62849;BME280;48941;49.516;8.286;2023-04-26T10:52:16;100579.50;;;14.33;38.16
62849;BME280;48941;49.516;8.286;2023-04-26T10:54:48;100585.53;;;14.45;38.69
62849;BME280;48941;49.516;8.286;2023-04-26T10:57:17;100568.75;;;14.72;37.71
62849;BME280;48941;49.516;8.286;2023-04-26T11:02:57;100563.28;;;15.29;37.08
62849;BME280;48941;49.516;8.286;2023-04-26T11:05:35;100557.47;;;15.51;36.42
62849;BME280;48941;49.516;8.286;2023-04-26T11:08:05;100563.47;;;15.63;36.29
62849;BME280;48941;49.516;8.286;2023-04-26T11:10:37;100550.72;;;15.75;36.12
62849;BME280;48941;49.516;8.286;2023-04-26T11:13:05;100552.03;;;15.89;35.47
62849;BME280;48941;49.516;8.286;2023-04-26T11:15:34;100545.41;;;16.01;35.08
62849;BME280;48941;49.516;8.286;2023-04-26T11:18:02;100548.53;;;16.32;35.04
62849;BME280;48941;49.516;8.286;2023-04-26T11:20:31;100552.88;;;16.51;34.85
62849;BME280;48941;49.516;8.286;2023-04-26T11:23:00;100533.78;;;16.89;33.70
62849;BME280;48941;49.516;8.286;2023-04-26T11:25:28;100530.84;;;17.08;32.43
62849;BME280;48941;49.516;8.286;2023-04-26T11:27:59;100529.69;;;17.11;33.03
62849;BME280;48941;49.516;8.286;2023-04-26T11:30:28;100528.59;;;17.30;33.24
62849;BME280;48941;49.516;8.286;2023-04-26T11:32:57;100527.56;;;17.31;33.18
62849;BME280;48941;49.516;8.286;2023-04-26T11:35:25;100516.97;;;17.29;33.10
62849;BME280;48941;49.516;8.286;2023-04-26T11:37:57;100521.88;;;17.34;33.13
62849;BME280;48941;49.516;8.286;2023-04-26T11:40:29;100524.41;;;17.36;33.00
62849;BME280;48941;49.516;8.286;2023-04-26T11:43:00;100519.09;;;17.09;33.25
62849;BME280;48941;49.516;8.286;2023-04-26T11:45:30;100528.72;;;17.20;33.55
62849;BME280;48941;49.516;8.286;2023-04-26T11:47:59;100520.63;;;17.20;32.85
62849;BME280;48941;49.516;8.286;2023-04-26T11:50:28;100513.38;;;16.78;33.18
62849;BME280;48941;49.516;8.286;2023-04-26T11:52:59;100512.84;;;16.48;33.78
62849;BME280;48941;49.516;8.286;2023-04-26T11:55:28;100518.06;;;16.24;34.67
62849;BME280;48941;49.516;8.286;2023-04-26T11:57:57;100520.53;;;16.17;34.35
62849;BME280;48941;49.516;8.286;2023-04-26T12:00:26;100515.88;;;16.01;35.24
62849;BME280;48941;49.516;8.286;2023-04-26T12:02:54;100518.50;;;15.75;35.56
62849;BME280;48941;49.516;8.286;2023-04-26T12:05:24;100517.09;;;15.89;36.01
62849;BME280;48941;49.516;8.286;2023-04-26T12:07:54;100514.19;;;15.64;35.97
62849;BME280;48941;49.516;8.286;2023-04-26T12:10:24;100513.56;;;15.70;35.11
62849;BME280;48941;49.516;8.286;2023-04-26T12:12:53;100510.50;;;16.01;35.13
62849;BME280;48941;49.516;8.286;2023-04-26T12:15:23;100518.97;;;16.32;34.56
62849;BME280;48941;49.516;8.286;2023-04-26T12:17:58;100504.00;;;16.56;34.41
62849;BME280;48941;49.516;8.286;2023-04-26T12:20:30;100506.97;;;16.79;33.44
62849;BME280;48941;49.516;8.286;2023-04-26T12:23:00;100497.31;;;16.95;32.67
62849;BME280;48941;49.516;8.286;2023-04-26T12:25:28;100509.66;;;16.79;32.35
62849;BME280;48941;49.516;8.286;2023-04-26T12:27:56;100510.56;;;16.53;32.67
62849;BME280;48941;49.516;8.286;2023-04-26T12:30:25;100515.81;;;16.37;33.48
62849;BME280;48941;49.516;8.286;2023-04-26T12:32:53;100522.13;;;16.28;34.63
62849;BME280;48941;49.516;8.286;2023-04-26T12:35:42;100511.44;;;16.36;34.40
62849;BME280;48941;49.516;8.286;2023-04-26T12:38:09;100505.41;;;16.68;33.48
62849;BME280;48941;49.516;8.286;2023-04-26T12:40:39;100508.72;;;16.88;33.03
62849;BME280;48941;49.516;8.286;2023-04-26T12:43:07;100508.13;;;17.03;32.47
62849;BME280;48941;49.516;8.286;2023-04-26T12:45:35;100510.38;;;16.81;32.83
62849;BME280;48941;49.516;8.286;2023-04-26T12:48:03;100505.59;;;16.75;32.97
62849;BME280;48941;49.516;8.286;2023-04-26T12:50:32;100508.94;;;16.69;33.04
62849;BME280;48941;49.516;8.286;2023-04-26T12:53:01;100503.56;;;16.69;32.67
62849;BME280;48941;49.516;8.286;2023-04-26T12:55:28;100502.22;;;16.39;33.16
62849;BME280;48941;49.516;8.286;2023-04-26T12:57:58;100503.09;;;16.21;33.19
62849;BME280;48941;49.516;8.286;2023-04-26T13:00:26;100504.53;;;16.33;33.17
62849;BME280;48941;49.516;8.286;2023-04-26T13:02:54;100498.69;;;16.38;33.41
62849;BME280;48941;49.516;8.286;2023-04-26T13:05:22;100503.16;;;16.56;33.32
62849;BME280;48941;49.516;8.286;2023-04-26T13:07:50;100506.94;;;16.71;33.17
62849;BME280;48941;49.516;8.286;2023-04-26T13:10:20;100501.06;;;17.02;33.44